createdAt,value
2022-08-28T00:02:48.205Z,25.00
2022-08-28T00:07:50.803Z,25.00
2022-08-28T00:12:55.827Z,25.00
2022-08-28T00:17:59.496Z,25.00
2022-08-28T00:23:02.138Z,25.00
2022-08-28T00:28:08.811Z,25.00
2022-08-28T00:33:15.732Z,25.00
2022-08-28T00:38:20.428Z,25.00
2022-08-28T00:43:44.595Z,25.00
2022-08-28T00:48:47.631Z,25.00
2022-08-28T00:53:50.521Z,25.00
2022-08-28T00:58:56.866Z,25.00
2022-08-28T01:03:59.196Z,25.00
2022-08-28T01:09:01.529Z,25.10
2022-08-28T01:14:05.468Z,25.00
2022-08-28T01:19:13.200Z,24.80
2022-08-28T01:24:18.063Z,24.80
2022-08-28T01:29:20.970Z,24.80
2022-08-28T01:34:23.628Z,24.80
2022-08-28T01:39:26.927Z,24.80
2022-08-28T01:44:29.272Z,24.60
2022-08-28T01:49:31.569Z,24.60
2022-08-28T01:54:33.815Z,24.60
2022-08-28T01:59:37.875Z,24.50
2022-08-28T02:04:40.610Z,24.50
2022-08-28T02:09:43.292Z,24.40
2022-08-28T02:14:45.546Z,24.30
2022-08-28T02:19:47.778Z,24.30
2022-08-28T02:24:50.055Z,24.30
2022-08-28T02:29:52.470Z,24.30
2022-08-28T02:34:55.424Z,24.20
2022-08-28T02:39:58.516Z,24.20
2022-08-28T02:45:01.035Z,24.10
2022-08-28T02:50:03.960Z,24.00
2022-08-28T02:55:07.443Z,23.90
2022-08-28T03:00:12.957Z,24.00
2022-08-28T03:05:17.699Z,24.00
2022-08-28T03:10:20.865Z,24.00
2022-08-28T03:15:23.305Z,23.90
2022-08-28T03:20:25.735Z,23.90
2022-08-28T03:25:29.150Z,23.90
2022-08-28T03:30:31.448Z,23.90
2022-08-28T03:35:34.251Z,23.90
2022-08-28T03:40:39.754Z,23.80
2022-08-28T03:45:51.132Z,23.90
2022-08-28T03:50:54.144Z,23.90
2022-08-28T03:55:58.141Z,23.90
2022-08-28T04:01:00.489Z,23.90
2022-08-28T04:06:03.117Z,23.90
2022-08-28T04:11:05.890Z,24.00
2022-08-28T04:16:11.973Z,23.90
2022-08-28T04:21:19.847Z,23.80
2022-08-28T04:26:25.165Z,23.70
2022-08-28T04:31:32.236Z,23.60
2022-08-28T04:36:35.841Z,23.60
2022-08-28T04:41:38.871Z,23.60
2022-08-28T04:46:41.243Z,23.60
2022-08-28T04:51:43.514Z,23.60
2022-08-28T04:56:49.200Z,23.60
2022-08-28T05:01:52.051Z,23.60
2022-08-28T05:06:54.628Z,23.80
2022-08-28T05:11:56.931Z,23.90
2022-08-28T05:16:59.403Z,24.10
2022-08-28T05:22:01.668Z,24.00
2022-08-28T05:27:04.281Z,24.10
2022-08-28T05:32:07.444Z,24.10
2022-08-28T05:37:09.784Z,24.30
2022-08-28T05:42:12.047Z,24.50
2022-08-28T05:47:15.320Z,24.30
2022-08-28T05:52:17.563Z,24.60
2022-08-28T05:57:19.872Z,24.80
2022-08-28T06:02:22.131Z,25.10
2022-08-28T06:07:24.944Z,25.30
2022-08-28T06:12:27.264Z,25.70
2022-08-28T06:17:29.600Z,26.30
2022-08-28T06:22:31.843Z,26.40
2022-08-28T06:27:36.804Z,27.00
2022-08-28T06:32:39.085Z,28.30
2022-08-28T06:37:41.337Z,28.90
2022-08-28T06:42:43.631Z,30.40
2022-08-28T06:47:48.023Z,33.00
2022-08-28T06:52:53.024Z,35.10
2022-08-28T06:57:55.252Z,36.80
2022-08-28T07:02:58.340Z,38.20
2022-08-28T07:08:01.072Z,39.50
2022-08-28T07:13:05.487Z,39.80
2022-08-28T07:18:07.715Z,39.10
2022-08-28T07:23:09.971Z,38.70
2022-08-28T07:28:12.330Z,37.50
2022-08-28T07:33:14.614Z,37.50
2022-08-28T07:38:17.331Z,36.90
2022-08-28T07:43:39.755Z,36.10
2022-08-28T07:48:42.581Z,34.80
2022-08-28T07:53:46.148Z,34.00
2022-08-28T08:12:58.714Z,31.30
2022-08-28T08:18:01.447Z,30.50
2022-08-28T08:23:03.729Z,30.50
2022-08-28T08:28:07.524Z,29.90
2022-08-28T08:33:11.507Z,29.80
2022-08-28T08:38:13.910Z,29.20
2022-08-28T08:43:18.658Z,29.40
2022-08-28T08:48:29.043Z,29.40
2022-08-28T08:58:44.703Z,29.60
2022-08-28T09:09:02.363Z,29.60
2022-08-28T09:14:21.666Z,29.80
2022-08-28T09:19:30.194Z,30.10
2022-08-28T09:24:36.674Z,30.10
2022-08-28T09:29:43.408Z,29.90
2022-08-28T09:45:30.323Z,29.20
2022-08-28T10:06:26.811Z,28.90
2022-08-28T10:22:25.521Z,28.20
2022-08-28T10:27:57.481Z,27.90
2022-08-28T10:38:21.603Z,28.10
2022-08-28T10:43:33.844Z,27.80
2022-08-28T10:48:46.377Z,27.50
2022-08-28T10:53:56.018Z,27.70
2022-08-28T10:58:59.490Z,27.60
2022-08-28T11:04:08.199Z,27.50
2022-08-28T11:09:24.877Z,27.30
2022-08-28T11:56:36.400Z,27.10
2022-08-28T12:01:39.804Z,26.40
2022-08-28T12:11:58.647Z,26.80
2022-08-28T12:22:16.863Z,27.00
2022-08-28T12:27:19.522Z,27.20
2022-08-28T12:32:46.387Z,27.20
2022-08-28T12:43:09.010Z,27.40
2022-08-28T12:53:22.783Z,27.90
2022-08-28T12:58:34.290Z,27.20
2022-08-28T13:03:58.232Z,27.40
2022-08-28T13:09:05.282Z,27.40
2022-08-28T13:14:08.631Z,27.60
2022-08-28T13:19:29.653Z,27.10
2022-08-28T13:30:04.712Z,26.60
2022-08-28T13:40:53.389Z,26.30
2022-08-28T13:45:45.955Z,26.60
2022-08-28T13:50:51.732Z,26.40
2022-08-28T13:55:54.055Z,26.60
2022-08-28T14:00:56.510Z,26.40
2022-08-28T14:05:58.848Z,26.50
2022-08-28T14:11:01.361Z,26.40
2022-08-28T14:16:07.320Z,26.60
2022-08-28T14:21:10.635Z,26.50
2022-08-28T14:26:12.870Z,26.80
2022-08-28T14:31:15.141Z,26.60
2022-08-28T14:36:21.187Z,26.50
2022-08-28T14:41:25.072Z,26.60
2022-08-28T14:46:33.380Z,26.40
2022-08-28T14:51:37.635Z,26.20
2022-08-28T14:56:43.020Z,26.10
2022-08-28T15:01:46.475Z,26.00
2022-08-28T15:06:50.910Z,25.80
2022-08-28T15:11:53.864Z,25.80
2022-08-28T15:16:56.169Z,26.00
2022-08-28T15:21:58.891Z,25.80
2022-08-28T15:27:02.167Z,25.90
2022-08-28T15:32:04.777Z,26.10
2022-08-28T15:37:07.992Z,26.00
2022-08-28T15:42:11.480Z,25.80
2022-08-28T15:47:15.330Z,25.90
2022-08-28T15:52:19.219Z,25.80
2022-08-28T15:57:21.493Z,25.60
2022-08-28T16:02:25.127Z,25.40
2022-08-28T16:07:27.480Z,25.50
2022-08-28T16:12:29.773Z,25.50
2022-08-28T16:17:32.031Z,25.10
2022-08-28T16:22:35.231Z,25.20
2022-08-28T16:27:37.503Z,25.40
2022-08-28T16:32:39.766Z,25.00
2022-08-28T16:37:42.746Z,24.80
2022-08-28T16:42:47.588Z,24.70
2022-08-28T16:47:54.729Z,25.00
2022-08-28T16:52:57.933Z,25.00
2022-08-28T16:58:00.618Z,24.90
2022-08-28T17:03:02.955Z,24.70
2022-08-28T17:08:05.420Z,25.00
2022-08-28T17:13:08.133Z,24.70
2022-08-28T17:18:10.437Z,24.90
2022-08-28T17:23:12.812Z,25.20
2022-08-28T17:28:15.403Z,24.90
2022-08-28T17:33:17.832Z,24.70
2022-08-28T17:38:20.052Z,24.70
2022-08-28T17:43:22.490Z,24.80
2022-08-28T17:48:24.961Z,25.10
2022-08-28T17:53:27.905Z,25.30
2022-08-28T17:58:33.420Z,25.50
2022-08-28T18:03:45.672Z,25.50
2022-08-28T18:08:55.637Z,25.50
2022-08-28T18:13:59.769Z,25.70
2022-08-28T18:19:04.824Z,26.00
2022-08-28T18:24:08.411Z,26.10
2022-08-28T18:29:11.798Z,26.30
2022-08-28T18:34:14.253Z,26.30
2022-08-28T18:39:16.752Z,26.30
2022-08-28T18:44:32.607Z,26.40
2022-08-28T18:49:35.066Z,26.50
2022-08-28T18:54:37.577Z,26.50
2022-08-28T18:59:40.046Z,26.50
2022-08-28T19:04:44.559Z,26.50
2022-08-28T19:09:46.811Z,26.50
2022-08-28T19:14:54.003Z,26.50
2022-08-28T19:19:57.500Z,26.50
2022-08-28T19:25:03.099Z,26.50
2022-08-28T19:30:07.836Z,26.50
2022-08-28T19:35:10.552Z,26.50
2022-08-28T19:40:13.927Z,26.40
2022-08-28T19:45:16.911Z,26.50
2022-08-28T19:50:20.200Z,26.50
2022-08-28T19:55:25.936Z,26.40
2022-08-28T20:00:29.626Z,26.40
2022-08-28T20:05:31.972Z,26.40
2022-08-28T20:10:34.304Z,26.30
2022-08-28T20:15:37.385Z,26.30
2022-08-28T20:20:40.070Z,26.30
2022-08-28T20:25:51.270Z,26.20
2022-08-28T20:30:53.679Z,26.20
2022-08-28T20:36:01.067Z,26.20
2022-08-28T20:46:17.023Z,26.10
2022-08-28T20:51:39.374Z,26.10
2022-08-28T20:56:42.067Z,26.10
2022-08-28T21:01:44.591Z,26.00
2022-08-28T21:06:46.948Z,26.00
2022-08-28T21:11:49.736Z,25.90
2022-08-28T21:16:52.081Z,25.90
2022-08-28T21:21:54.470Z,25.80
2022-08-28T21:26:57.865Z,25.70
2022-08-28T21:32:00.897Z,25.70
2022-08-28T21:37:03.574Z,25.50
2022-08-28T21:42:06.271Z,25.50
2022-08-28T21:47:08.532Z,25.40
2022-08-28T21:52:10.759Z,25.20
2022-08-28T21:57:13.076Z,25.10
2022-08-28T22:02:15.381Z,25.00
2022-08-28T22:07:18.985Z,25.10
2022-08-28T22:12:21.399Z,25.20
2022-08-28T22:17:23.630Z,25.10
2022-08-28T22:22:45.773Z,25.10
2022-08-28T22:27:48.046Z,25.10
2022-08-28T22:32:50.347Z,25.00
2022-08-28T22:37:52.619Z,25.00
2022-08-28T22:42:55.528Z,25.00
2022-08-28T22:47:57.850Z,25.00
2022-08-28T22:53:00.271Z,25.00
2022-08-28T22:58:03.251Z,24.90
2022-08-28T23:03:05.556Z,24.90
2022-08-28T23:08:07.894Z,24.90
2022-08-28T23:13:10.230Z,24.90
2022-08-28T23:18:17.394Z,24.90
2022-08-28T23:23:20.710Z,24.90
2022-08-28T23:28:22.994Z,24.90
2022-08-28T23:33:25.271Z,24.90
2022-08-28T23:38:27.595Z,25.00
2022-08-28T23:43:29.980Z,25.00
2022-08-28T23:48:32.430Z,25.10
2022-08-28T23:53:35.530Z,25.00
2022-08-28T23:58:37.785Z,25.00
